ADDS METAR Data INFO
IDs: Format: Raw Decoded Include TAF

Data at: 0408 UTC 11 Dec 2017

KDAG 110350Z AUTO 29005KT 10SM CLR 07/M17 A3030 RMK AO2 SLP261 T00671167
KDAG 110250Z AUTO 29004KT 10SM CLR 08/M17 A3029 RMK AO2 SLP258 T00781167 51005
KDAG 110150Z AUTO 00000KT 10SM CLR 10/M16 A3028 RMK AO2 SLP256 T01001161
KDAG 110050Z AUTO 00000KT 10SM CLR 14/M16 A3028 RMK AO2 SLP250 T01391156
KDAG 102350Z AUTO 02003KT 10SM CLR 16/M14 A3027 RMK AO2 SLP249 T01611144 10189 20128 56011
KDAG 102250Z AUTO 06003KT 10SM CLR 18/M15 A3027 RMK AO2 SLP247 T01831150
KDAG 102150Z AUTO 08006KT 10SM CLR 18/M16 A3029 RMK AO2 SLP251 T01831161
KDAG 102050Z AUTO 10008KT 10SM CLR 18/M17 A3030 RMK AO2 SLP257 T01831167 58029
KDAG 101950Z AUTO 08007KT 10SM CLR 18/M16 A3034 RMK AO2 SLP268 T01781156
KDAG 101850Z AUTO 09006KT 10SM CLR 16/M14 A3037 RMK AO2 SLP280 T01561139
KDAG 101750Z AUTO 00000KT 10SM CLR 13/M14 A3040 RMK AO2 SLP291 T01281139 10128 21011 51008
KDAG 101650Z AUTO 26003KT 10SM CLR 07/M14 A3039 RMK AO2 SLP293 T00721139
KDAG 101550Z AUTO 26005KT 10SM CLR 02/M14 A3038 RMK AO2 SLP290 T00171144
KDAG 101450Z AUTO 26004KT 10SM CLR 01/M14 A3037 RMK AO2 SLP286 T00061144 53005
KDAG 101350Z AUTO 27006KT 10SM CLR M01/M15 A3036 RMK AO2 SLP283 T10061150
KDAG 101250Z AUTO 00000KT 10SM CLR 00/M16 A3035 RMK AO2 SLP275 T00001156
KDAG 101150Z AUTO 28005KT 10SM CLR M01/M14 A3036 RMK AO2 SLP275 T10061144 10044 21006 51001
KDAG 101050Z AUTO 27006KT 10SM CLR 01/M14 A3035 RMK AO2 SLP274 T00061144
KDAG 100950Z AUTO 28004KT 10SM CLR 02/M15 A3036 RMK AO2 SLP276 T00171150
KDAG 100850Z AUTO 26003KT 10SM CLR 02/M16 A3035 RMK AO2 SLP274 T00171156 58005
KDAG 100750Z AUTO 25004KT 10SM CLR 02/M15 A3037 RMK AO2 SLP279 T00221150 401940000
KDAG 100650Z AUTO 25005KT 10SM CLR 03/M15 A3037 RMK AO2 SLP282 T00281150
KDAG 100550Z AUTO 00000KT 10SM CLR 04/M16 A3037 RMK AO2 SLP283 T00391156 10189 20033 53009
KDAG 100450Z AUTO 29003KT 10SM CLR 05/M14 A3036 RMK AO2 SLP281 T00501144
KDAG 100350Z AUTO 00000KT 10SM CLR 07/M14 A3035 RMK AO2 SLP278 T00671144
KDAG 100250Z AUTO 00000KT 10SM CLR 09/M15 A3034 RMK AO2 SLP276 T00891150 53010
KDAG 100150Z AUTO 00000KT 10SM CLR 12/M14 A3032 RMK AO2 SLP266 T01171144
KDAG 100050Z AUTO 06003KT 10SM CLR 16/M12 A3031 RMK AO2 SLP260 T01611122
KDAG 092350Z AUTO 10004KT 10SM CLR 19/M13 A3031 RMK AO2 SLP257 T01891128 10194 20117 56010
KDAG 092250Z AUTO 10005KT 10SM CLR 19/M13 A3032 RMK AO2 SLP260 T01891128
KDAG 092150Z AUTO 09007KT 10SM CLR 19/M13 A3032 RMK AO2 SLP261 T01891128
KDAG 092050Z AUTO 10005KT 10SM CLR 19/M13 A3034 RMK AO2 SLP267 T01891128 58026
KDAG 091950Z AUTO 00000KT 10SM CLR 17/M11 A3037 RMK AO2 SLP279 T01671111
KDAG 091850Z AUTO 00000KT 10SM CLR 15/M12 A3040 RMK AO2 SLP291 T01501122
KDAG 091750Z AUTO 29004KT 10SM CLR 12/M13 A3042 RMK AO2 SLP300 T01171128 10117 20000 50004
KDAG 091650Z AUTO 28007KT 10SM CLR 08/M13 A3042 RMK AO2 SLP301 T00781128